Picton, Canada
Current Conditions -  °F | °C
As of 3:00 AM on Sunday 23 Nov 2014 (Local Time) from CYTR Reporting Station
Overcast Overcast  
Wind Chill: 39°   Ceiling: 1200
Heat Index: 45°   Visibility: 7mi
Dew Point: 41°   Wind: 12mph
Humidity: 87%   Direction: 240°WSW
Pressure: 29.95"   Gusts: NA
Location:  44.01°N, 77.14°W
Report Text: CYTR 230800Z 24010KT 7SM OVC012 07/05 A2995 RMK SF8 SLP145
Loading
Personal Weather Stations






























Interactive Weather Map New forecast layout! Learn more

10-Day Weather Forecast

Advertisements
Track Severe Weather on mobile